Time;durP1;ratioP1;P1;durP2;ratioP2;P2;SDS_P1;SDS_P2;PMS_P1;PMS_P2;Temp;Humidity;BMP_temperature;BMP_pressure;BME280_temperature;BME280_humidity;BME280_pressure;Samples;Min_cycle;Max_cycle;Signal;HPM_P1;HPM_P2
2021/11/22 00:01:52;;;;;;;4.28;1.80;;;;;;;;;;6140884;23;20013;-73
2021/11/22 00:04:18;;;;;;;18.02;1.98;;;;;;;;;;6143058;23;20382;-73
2021/11/22 00:06:45;;;;;;;2.95;1.55;;;;;;;;;;6142214;23;20450;-72
2021/11/22 00:09:16;;;;;;;10.00;1.90;;;;;;;;;;6143137;23;20010;-72
2021/11/22 00:11:49;;;;;;;3.38;1.63;;;;;;;;;;6142779;23;20056;-73
2021/11/22 00:14:15;;;;;;;3.88;1.20;;;;;;;;;;6114107;23;20330;-73
2021/11/22 00:16:42;;;;;;;2.15;0.98;;;;;;;;;;6142772;23;20288;-72
2021/11/22 00:19:08;;;;;;;1.70;1.08;;;;;;;;;;6142433;23;20001;-73
2021/11/22 00:21:34;;;;;;;4.80;1.75;;;;;;;;;;6140614;23;20013;-73
2021/11/22 00:24:00;;;;;;;3.10;0.85;;;;;;;;;;6142381;23;20002;-73
2021/11/22 00:26:27;;;;;;;1.80;1.20;;;;;;;;;;6115635;23;20504;-73
2021/11/22 00:28:53;;;;;;;4.10;1.60;;;;;;;;;;6144024;23;20009;-73
2021/11/22 00:31:19;;;;;;;4.95;1.55;;;;;;;;;;6140546;23;20010;-73
2021/11/22 00:33:47;;;;;;;4.07;2.00;;;;;;;;;;6144710;23;20096;-73
2021/11/22 00:36:13;;;;;;;5.55;2.20;;;;;;;;;;6145048;23;20018;-73
2021/11/22 00:38:40;;;;;;;4.18;1.90;;;;;;;;;;6145065;23;20002;-72
2021/11/22 00:41:07;;;;;;;2.90;1.88;;;;;;;;;;6141945;23;19998;-72
2021/11/22 00:43:33;;;;;;;4.07;2.05;;;;;;;;;;6118256;23;20331;-72
2021/11/22 00:46:01;;;;;;;4.63;2.20;;;;;;;;;;6145430;23;20009;-72
2021/11/22 00:48:27;;;;;;;5.15;2.38;;;;;;;;;;6145227;23;20001;-72
2021/11/22 00:50:55;;;;;;;3.83;2.03;;;;;;;;;;6119142;23;20312;-72
2021/11/22 00:53:22;;;;;;;2.85;1.80;;;;;;;;;;6148260;23;20001;-72
2021/11/22 00:55:54;;;;;;;4.10;2.15;;;;;;;;;;6149081;23;20399;-72
2021/11/22 00:58:20;;;;;;;4.38;2.08;;;;;;;;;;6149081;23;20006;-72
2021/11/22 01:00:47;;;;;;;2.85;1.95;;;;;;;;;;6147668;23;20108;-72
2021/11/22 01:03:13;;;;;;;3.25;2.00;;;;;;;;;;6148343;23;20012;-72
2021/11/22 01:05:39;;;;;;;2.65;1.92;;;;;;;;;;6148548;23;20009;-72
2021/11/22 01:08:06;;;;;;;3.78;2.40;;;;;;;;;;6122391;23;20033;-72
2021/11/22 01:10:32;;;;;;;3.72;2.08;;;;;;;;;;6122216;23;20128;-72
2021/11/22 01:12:59;;;;;;;3.63;2.40;;;;;;;;;;6120892;23;20009;-72
2021/11/22 01:15:25;;;;;;;2.88;2.15;;;;;;;;;;6146206;23;20036;-72
2021/11/22 01:17:52;;;;;;;5.32;2.45;;;;;;;;;;6148955;23;20009;-71
2021/11/22 01:20:20;;;;;;;3.83;2.15;;;;;;;;;;6151757;23;20439;-71
2021/11/22 01:22:46;;;;;;;2.75;2.17;;;;;;;;;;6151452;23;20489;-71
2021/11/22 01:25:13;;;;;;;4.60;2.80;;;;;;;;;;6151813;23;20447;-70
2021/11/22 01:27:40;;;;;;;4.63;2.30;;;;;;;;;;6149964;23;20002;-70
2021/11/22 01:30:09;;;;;;;3.85;2.55;;;;;;;;;;6150482;23;20434;-70
2021/11/22 01:32:36;;;;;;;7.50;2.67;;;;;;;;;;6152084;23;20009;-70
2021/11/22 01:35:02;;;;;;;6.40;2.63;;;;;;;;;;6151805;23;20063;-71
2021/11/22 01:37:29;;;;;;;4.30;2.50;;;;;;;;;;6152701;23;20018;-71
2021/11/22 01:39:55;;;;;;;4.82;2.30;;;;;;;;;;6153873;23;20008;-71
2021/11/22 01:42:21;;;;;;;3.95;2.05;;;;;;;;;;6150901;23;20056;-72
2021/11/22 01:44:47;;;;;;;3.35;2.20;;;;;;;;;;6153703;23;20004;-71
2021/11/22 01:47:13;;;;;;;3.30;1.90;;;;;;;;;;6153396;23;20539;-71
2021/11/22 01:49:39;;;;;;;4.50;2.25;;;;;;;;;;6151949;23;19997;-71
2021/11/22 01:52:06;;;;;;;4.03;2.15;;;;;;;;;;6153600;23;20005;-71
2021/11/22 01:54:32;;;;;;;2.83;2.13;;;;;;;;;;6153516;23;20318;-70
2021/11/22 01:56:58;;;;;;;3.40;2.33;;;;;;;;;;6153777;23;20013;-70
2021/11/22 01:59:24;;;;;;;3.80;2.50;;;;;;;;;;6153408;23;20007;-72
2021/11/22 02:01:51;;;;;;;4.18;2.38;;;;;;;;;;6152085;23;19997;-71
2021/11/22 02:04:17;;;;;;;3.47;2.67;;;;;;;;;;6153578;23;20006;-71
2021/11/22 02:06:44;;;;;;;3.25;2.13;;;;;;;;;;6153691;23;19997;-71
2021/11/22 02:09:10;;;;;;;3.28;2.42;;;;;;;;;;6153315;23;20006;-71
2021/11/22 02:11:37;;;;;;;4.53;2.33;;;;;;;;;;6150949;23;20025;-71
2021/11/22 02:14:04;;;;;;;6.70;2.40;;;;;;;;;;6151944;23;20112;-71
2021/11/22 02:16:30;;;;;;;5.00;2.63;;;;;;;;;;6127363;23;20024;-71
2021/11/22 02:18:56;;;;;;;3.83;2.30;;;;;;;;;;6153522;23;20438;-71
2021/11/22 02:21:22;;;;;;;2.88;2.13;;;;;;;;;;6153437;23;20006;-70
2021/11/22 02:23:49;;;;;;;3.50;2.63;;;;;;;;;;6153647;23;20064;-71
2021/11/22 02:26:15;;;;;;;4.88;2.40;;;;;;;;;;6152823;23;20024;-71
2021/11/22 02:28:41;;;;;;;4.15;2.47;;;;;;;;;;6152859;23;20007;-71
2021/11/22 02:31:09;;;;;;;3.65;2.33;;;;;;;;;;6153561;23;20554;-71
2021/11/22 02:33:35;;;;;;;3.08;2.45;;;;;;;;;;6153470;23;20001;-70
2021/11/22 02:36:01;;;;;;;3.60;2.50;;;;;;;;;;6151074;23;20014;-71
2021/11/22 02:38:32;;;;;;;7.47;2.80;;;;;;;;;;6153908;23;20409;-72
2021/11/22 02:40:59;;;;;;;3.72;2.70;;;;;;;;;;6152697;23;20446;-71
2021/11/22 02:43:25;;;;;;;4.18;2.65;;;;;;;;;;6153148;23;20009;-71
2021/11/22 02:45:52;;;;;;;4.35;3.00;;;;;;;;;;6153457;23;20005;-71
2021/11/22 02:48:18;;;;;;;4.03;2.80;;;;;;;;;;6151407;23;20327;-70
2021/11/22 02:50:45;;;;;;;4.60;2.78;;;;;;;;;;6153150;23;20073;-71
2021/11/22 02:53:11;;;;;;;3.83;2.88;;;;;;;;;;6153402;23;20052;-71
2021/11/22 02:55:38;;;;;;;6.82;3.47;;;;;;;;;;6152862;23;20040;-71
2021/11/22 02:58:04;;;;;;;5.63;3.40;;;;;;;;;;6153122;23;20430;-71
2021/11/22 03:00:31;;;;;;;5.07;3.95;;;;;;;;;;6153125;23;20433;-71
2021/11/22 03:02:57;;;;;;;6.70;3.92;;;;;;;;;;6151574;23;20338;-71
2021/11/22 03:05:24;;;;;;;7.22;4.28;;;;;;;;;;6153026;23;20016;-73
2021/11/22 03:07:53;;;;;;;7.35;4.18;;;;;;;;;;6153080;23;20001;-71
2021/11/22 03:10:20;;;;;;;6.18;4.22;;;;;;;;;;6151393;23;20028;-71
2021/11/22 03:12:46;;;;;;;7.15;5.07;;;;;;;;;;6152268;23;20387;-73
2021/11/22 03:15:14;;;;;;;8.32;5.30;;;;;;;;;;6152824;23;20013;-73
2021/11/22 03:17:41;;;;;;;5.97;4.57;;;;;;;;;;6149054;23;20426;-71
2021/11/22 03:20:08;;;;;;;8.70;4.90;;;;;;;;;;6150211;23;19998;-71
2021/11/22 03:22:34;;;;;;;6.50;4.32;;;;;;;;;;6152870;23;20012;-73
2021/11/22 03:25:00;;;;;;;9.80;4.53;;;;;;;;;;6124770;23;20009;-73
2021/11/22 03:27:27;;;;;;;5.55;3.05;;;;;;;;;;6152896;23;20088;-73
2021/11/22 03:29:53;;;;;;;4.90;3.17;;;;;;;;;;6153014;23;20033;-73
2021/11/22 03:32:19;;;;;;;7.05;3.05;;;;;;;;;;6148196;23;20009;-70
2021/11/22 03:34:45;;;;;;;8.65;3.08;;;;;;;;;;6148092;23;20040;-71
2021/11/22 03:37:12;;;;;;;5.15;2.97;;;;;;;;;;6152356;23;20136;-72
2021/11/22 03:39:38;;;;;;;3.55;2.75;;;;;;;;;;6152406;23;20011;-71
2021/11/22 03:42:07;;;;;;;5.68;2.97;;;;;;;;;;6149909;23;20002;-71
2021/11/22 03:44:34;;;;;;;5.30;2.67;;;;;;;;;;6152509;23;20002;-72
2021/11/22 03:47:01;;;;;;;4.63;2.42;;;;;;;;;;6152342;23;20001;-73
2021/11/22 03:49:27;;;;;;;5.55;3.15;;;;;;;;;;6152362;23;20010;-73
2021/11/22 03:51:54;;;;;;;7.22;4.00;;;;;;;;;;6151103;23;20001;-73
2021/11/22 03:54:20;;;;;;;8.05;4.72;;;;;;;;;;6153004;23;20001;-73
2021/11/22 03:56:47;;;;;;;6.88;3.83;;;;;;;;;;6152428;23;20624;-72
2021/11/22 03:59:13;;;;;;;6.43;3.90;;;;;;;;;;6152201;23;20108;-73
2021/11/22 04:01:40;;;;;;;6.55;4.35;;;;;;;;;;6150582;23;20052;-73
2021/11/22 04:04:06;;;;;;;7.53;3.80;;;;;;;;;;6145138;23;20558;-73
2021/11/22 04:06:33;;;;;;;5.40;3.33;;;;;;;;;;6146810;23;20036;-73
2021/11/22 04:08:59;;;;;;;4.97;3.40;;;;;;;;;;6146288;23;20035;-72
2021/11/22 04:11:25;;;;;;;6.88;3.80;;;;;;;;;;6143317;23;20013;-72
2021/11/22 04:13:53;;;;;;;3.90;3.08;;;;;;;;;;6141977;23;20002;-73
2021/11/22 04:16:19;;;;;;;6.18;3.35;;;;;;;;;;6141173;23;20084;-72
2021/11/22 04:18:45;;;;;;;6.07;3.05;;;;;;;;;;6142979;23;20001;-72
2021/11/22 04:21:13;;;;;;;6.88;3.47;;;;;;;;;;6142639;23;20006;-72
2021/11/22 04:23:39;;;;;;;4.93;3.50;;;;;;;;;;6142407;23;20608;-73
2021/11/22 04:26:07;;;;;;;8.20;3.90;;;;;;;;;;6145108;23;20021;-72
2021/11/22 04:28:34;;;;;;;5.30;3.65;;;;;;;;;;6145479;23;20001;-73
2021/11/22 04:31:00;;;;;;;5.13;3.60;;;;;;;;;;6143165;23;20009;-73
2021/11/22 04:33:26;;;;;;;5.40;3.72;;;;;;;;;;6145267;23;20002;-73
2021/11/22 04:35:52;;;;;;;5.07;4.30;;;;;;;;;;6144447;23;20065;-72
2021/11/22 04:38:18;;;;;;;6.88;4.38;;;;;;;;;;6145197;23;20457;-72
2021/11/22 04:40:45;;;;;;;5.68;4.38;;;;;;;;;;6144719;23;20021;-72
2021/11/22 04:43:11;;;;;;;5.32;3.63;;;;;;;;;;6143711;23;20001;-71
2021/11/22 04:45:37;;;;;;;5.07;4.07;;;;;;;;;;6142376;23;20055;-72
2021/11/22 04:48:04;;;;;;;14.93;5.35;;;;;;;;;;6142039;23;20013;-72
2021/11/22 04:50:31;;;;;;;6.07;4.10;;;;;;;;;;6141213;23;20308;-72
2021/11/22 04:52:57;;;;;;;4.10;3.40;;;;;;;;;;6144598;23;20001;-72
2021/11/22 04:55:24;;;;;;;5.47;3.65;;;;;;;;;;6144736;23;20469;-72
2021/11/22 04:57:51;;;;;;;6.90;3.67;;;;;;;;;;6143017;23;20005;-72
2021/11/22 05:00:18;;;;;;;6.20;4.55;;;;;;;;;;6144574;23;20071;-71
2021/11/22 05:02:45;;;;;;;9.48;5.22;;;;;;;;;;6144915;23;20005;-71
2021/11/22 05:05:12;;;;;;;7.38;4.70;;;;;;;;;;6144520;23;19997;-72
2021/11/22 05:07:39;;;;;;;5.22;4.18;;;;;;;;;;6142800;23;20020;-72
2021/11/22 05:10:06;;;;;;;6.50;4.57;;;;;;;;;;6144438;23;20088;-72
2021/11/22 05:12:32;;;;;;;8.32;4.72;;;;;;;;;;6144152;23;20009;-71
2021/11/22 05:14:58;;;;;;;8.50;4.78;;;;;;;;;;6146547;23;20076;-72
2021/11/22 05:17:25;;;;;;;7.18;4.82;;;;;;;;;;6118211;23;20013;-71
2021/11/22 05:19:51;;;;;;;6.82;4.70;;;;;;;;;;6145493;23;20088;-72
2021/11/22 05:22:19;;;;;;;8.15;4.70;;;;;;;;;;6145741;23;20081;-71
2021/11/22 05:24:50;;;;;;;6.25;4.88;;;;;;;;;;6145219;23;20005;-72
2021/11/22 05:27:21;;;;;;;4.85;4.28;;;;;;;;;;6144474;23;20024;-71
2021/11/22 05:29:49;;;;;;;4.90;4.20;;;;;;;;;;6147974;23;20088;-72
2021/11/22 05:32:16;;;;;;;7.50;4.70;;;;;;;;;;6147365;23;20072;-72
2021/11/22 05:34:43;;;;;;;7.65;4.78;;;;;;;;;;6146195;23;20009;-72
2021/11/22 05:37:09;;;;;;;6.75;4.93;;;;;;;;;;6147497;23;20045;-72
2021/11/22 05:39:36;;;;;;;7.50;4.18;;;;;;;;;;6147206;23;20056;-72
2021/11/22 05:42:03;;;;;;;5.53;4.53;;;;;;;;;;6146829;23;20016;-72
2021/11/22 05:44:32;;;;;;;7.50;4.68;;;;;;;;;;6148085;23;20513;-72
2021/11/22 05:46:58;;;;;;;7.45;5.38;;;;;;;;;;6147551;23;20005;-71
2021/11/22 05:49:24;;;;;;;6.72;4.80;;;;;;;;;;6146182;23;20044;-72
2021/11/22 05:51:50;;;;;;;9.00;4.53;;;;;;;;;;6147928;23;20005;-72
2021/11/22 05:54:19;;;;;;;8.35;4.72;;;;;;;;;;6121751;23;20029;-71
2021/11/22 05:56:45;;;;;;;7.63;4.75;;;;;;;;;;6147964;23;20044;-72
2021/11/22 05:59:11;;;;;;;5.40;4.60;;;;;;;;;;6146578;23;20001;-72
2021/11/22 06:01:38;;;;;;;4.75;4.22;;;;;;;;;;6143855;23;20024;-72
2021/11/22 06:04:04;;;;;;;5.20;4.43;;;;;;;;;;6141648;23;20002;-72
2021/11/22 06:06:30;;;;;;;6.38;4.65;;;;;;;;;;6147055;23;20063;-72
2021/11/22 06:08:56;;;;;;;6.40;4.78;;;;;;;;;;6147219;23;20080;-72
2021/11/22 06:11:22;;;;;;;7.10;4.88;;;;;;;;;;6145108;23;20012;-72
2021/11/22 06:13:48;;;;;;;6.00;4.70;;;;;;;;;;6145672;23;19997;-72
2021/11/22 06:16:14;;;;;;;6.40;5.65;;;;;;;;;;6146859;23;20010;-72
2021/11/22 06:18:41;;;;;;;6.53;4.35;;;;;;;;;;6146526;23;20006;-71
2021/11/22 06:21:07;;;;;;;5.43;4.50;;;;;;;;;;6147158;23;20001;-71
2021/11/22 06:23:33;;;;;;;8.60;4.50;;;;;;;;;;6146423;23;20056;-72
2021/11/22 06:25:59;;;;;;;6.10;5.22;;;;;;;;;;6144885;23;20041;-72
2021/11/22 06:28:26;;;;;;;8.15;4.32;;;;;;;;;;6146845;23;20390;-71
2021/11/22 06:30:52;;;;;;;7.97;5.55;;;;;;;;;;6144822;23;20005;-72
2021/11/22 06:33:18;;;;;;;6.35;5.47;;;;;;;;;;6142953;23;20439;-72
2021/11/22 06:35:44;;;;;;;9.07;5.68;;;;;;;;;;6142408;23;20009;-72
2021/11/22 06:38:12;;;;;;;8.00;6.25;;;;;;;;;;6141651;23;20028;-72
2021/11/22 06:40:38;;;;;;;10.15;8.95;;;;;;;;;;6143301;23;20006;-72
2021/11/22 06:43:04;;;;;;;10.15;7.10;;;;;;;;;;6141736;23;20036;-71
2021/11/22 06:45:30;;;;;;;9.70;6.68;;;;;;;;;;6142486;23;20006;-71
2021/11/22 06:47:57;;;;;;;11.18;7.63;;;;;;;;;;6142484;23;20076;-71
2021/11/22 06:50:23;;;;;;;10.77;7.72;;;;;;;;;;6141152;23;19997;-71
2021/11/22 06:52:49;;;;;;;8.07;7.07;;;;;;;;;;6142984;23;20012;-71
2021/11/22 06:55:16;;;;;;;9.15;6.75;;;;;;;;;;6142794;23;20323;-70
2021/11/22 06:57:42;;;;;;;9.50;6.85;;;;;;;;;;6140236;23;20002;-73
2021/11/22 07:00:10;;;;;;;11.15;7.53;;;;;;;;;;6141783;23;20006;-70
2021/11/22 07:02:37;;;;;;;8.82;7.47;;;;;;;;;;6141347;23;20008;-70
2021/11/22 07:05:04;;;;;;;11.70;7.57;;;;;;;;;;6139749;23;20060;-71
2021/11/22 07:07:30;;;;;;;11.38;7.57;;;;;;;;;;6141604;23;20068;-70
2021/11/22 07:09:57;;;;;;;9.15;7.70;;;;;;;;;;6141454;23;20542;-71
2021/11/22 07:12:23;;;;;;;8.70;6.57;;;;;;;;;;6115259;23;20005;-70
2021/11/22 07:14:49;;;;;;;9.88;6.60;;;;;;;;;;6142174;23;20013;-71
2021/11/22 07:17:16;;;;;;;8.60;6.65;;;;;;;;;;6140541;23;20097;-70
2021/11/22 07:19:43;;;;;;;8.20;6.47;;;;;;;;;;6142047;23;20005;-73
2021/11/22 07:22:10;;;;;;;10.90;7.60;;;;;;;;;;6142182;23;20089;-70
2021/11/22 07:24:39;;;;;;;9.55;6.50;;;;;;;;;;6142223;23;20316;-70
2021/11/22 07:27:06;;;;;;;8.43;6.20;;;;;;;;;;6142146;23;20393;-70
2021/11/22 07:29:32;;;;;;;8.27;6.32;;;;;;;;;;6139940;23;20456;-72
2021/11/22 07:31:59;;;;;;;7.32;5.85;;;;;;;;;;6142602;23;20063;-70
2021/11/22 07:34:25;;;;;;;8.10;5.85;;;;;;;;;;6142142;23;20071;-70
2021/11/22 07:36:51;;;;;;;7.40;6.00;;;;;;;;;;6141697;23;20013;-70
2021/11/22 07:39:17;;;;;;;9.38;6.38;;;;;;;;;;6139972;23;20001;-71
2021/11/22 07:41:44;;;;;;;8.88;6.40;;;;;;;;;;6140270;23;20616;-70
2021/11/22 07:44:10;;;;;;;10.75;6.50;;;;;;;;;;6141623;23;20021;-71
2021/11/22 07:46:37;;;;;;;9.98;6.35;;;;;;;;;;6141687;23;20557;-71
2021/11/22 07:49:03;;;;;;;11.20;6.25;;;;;;;;;;6140138;23;20006;-71
2021/11/22 07:51:29;;;;;;;9.02;7.25;;;;;;;;;;6141522;23;20009;-71
2021/11/22 07:53:55;;;;;;;9.13;6.78;;;;;;;;;;6141707;23;20076;-70
2021/11/22 07:56:21;;;;;;;9.02;7.25;;;;;;;;;;6140722;23;20481;-70
2021/11/22 07:58:48;;;;;;;8.57;7.28;;;;;;;;;;6140214;23;20052;-71
2021/11/22 08:01:14;;;;;;;9.05;6.68;;;;;;;;;;6142037;23;20009;-71
2021/11/22 08:03:40;;;;;;;7.07;6.38;;;;;;;;;;6142716;23;19997;-71
2021/11/22 08:06:07;;;;;;;10.43;6.72;;;;;;;;;;6142267;23;20025;-71
2021/11/22 08:08:37;;;;;;;7.97;6.28;;;;;;;;;;6140820;23;20002;-71
2021/11/22 08:11:17;;;;;;;7.75;6.55;;;;;;;;;;6141521;23;20080;-71
2021/11/22 08:13:44;;;;;;;7.07;6.35;;;;;;;;;;6141345;23;20015;-70
2021/11/22 08:16:11;;;;;;;6.78;6.15;;;;;;;;;;6142114;23;20028;-70
2021/11/22 08:18:39;;;;;;;7.35;6.03;;;;;;;;;;6140707;23;20125;-70
2021/11/22 08:21:05;;;;;;;7.57;5.85;;;;;;;;;;6141125;23;20012;-72
2021/11/22 08:23:32;;;;;;;6.05;5.30;;;;;;;;;;6138757;23;20012;-73
2021/11/22 08:25:58;;;;;;;7.15;5.85;;;;;;;;;;6141915;23;20017;-73
2021/11/22 08:28:27;;;;;;;5.63;4.90;;;;;;;;;;6142624;23;20064;-74
2021/11/22 08:30:54;;;;;;;5.05;4.50;;;;;;;;;;6141913;23;20036;-74
2021/11/22 08:33:20;;;;;;;5.60;4.60;;;;;;;;;;6140547;23;20001;-74
2021/11/22 08:35:47;;;;;;;5.70;4.55;;;;;;;;;;6141508;23;20096;-73
2021/11/22 08:38:13;;;;;;;5.22;4.53;;;;;;;;;;6141611;23;20008;-72
2021/11/22 08:40:43;;;;;;;5.78;4.30;;;;;;;;;;6144026;23;20006;-73
2021/11/22 08:43:14;;;;;;;5.40;4.55;;;;;;;;;;6140424;23;20001;-73
2021/11/22 08:45:40;;;;;;;5.50;4.47;;;;;;;;;;6144031;23;20016;-73
2021/11/22 08:48:07;;;;;;;6.57;5.22;;;;;;;;;;6142160;23;20008;-73
2021/11/22 08:50:34;;;;;;;7.80;5.50;;;;;;;;;;6141725;23;20021;-73
2021/11/22 08:53:00;;;;;;;7.47;5.22;;;;;;;;;;6143365;23;20040;-73
2021/11/22 08:55:27;;;;;;;6.47;4.95;;;;;;;;;;6141141;23;20037;-72
2021/11/22 08:57:54;;;;;;;5.32;4.57;;;;;;;;;;6142144;23;20005;-72
2021/11/22 09:00:23;;;;;;;5.20;4.60;;;;;;;;;;6142453;23;20029;-73
2021/11/22 09:02:49;;;;;;;5.60;4.60;;;;;;;;;;6142737;23;20032;-72
2021/11/22 09:05:15;;;;;;;4.78;4.38;;;;;;;;;;6142859;23;20005;-71
2021/11/22 09:07:42;;;;;;;4.53;4.10;;;;;;;;;;6142869;23;20050;-73
2021/11/22 09:10:09;;;;;;;4.97;4.25;;;;;;;;;;6114554;23;19997;-72
2021/11/22 09:12:35;;;;;;;5.10;4.20;;;;;;;;;;6138084;23;20012;-74
2021/11/22 09:15:01;;;;;;;4.78;4.10;;;;;;;;;;6114657;23;20021;-74
2021/11/22 09:17:28;;;;;;;5.35;4.05;;;;;;;;;;6141167;23;20060;-73
2021/11/22 09:19:54;;;;;;;5.72;4.47;;;;;;;;;;6139523;23;20757;-73
2021/11/22 09:22:20;;;;;;;5.15;4.20;;;;;;;;;;6114963;23;20009;-73
2021/11/22 09:24:47;;;;;;;5.10;4.15;;;;;;;;;;6141575;23;20323;-74
2021/11/22 09:27:13;;;;;;;4.93;4.13;;;;;;;;;;6141248;23;20016;-73
2021/11/22 09:29:39;;;;;;;4.50;4.10;;;;;;;;;;6140888;23;20024;-73
2021/11/22 09:32:06;;;;;;;5.07;4.57;;;;;;;;;;6119860;23;20032;-72
2021/11/22 09:34:33;;;;;;;4.97;4.38;;;;;;;;;;6145367;23;20002;-73
2021/11/22 09:36:59;;;;;;;7.07;4.82;;;;;;;;;;6144804;23;20022;-73
2021/11/22 09:39:26;;;;;;;6.20;4.68;;;;;;;;;;6145151;23;20007;-73
2021/11/22 09:41:52;;;;;;;5.95;4.85;;;;;;;;;;6144788;23;20033;-73
2021/11/22 09:44:23;;;;;;;5.00;4.50;;;;;;;;;;6144425;23;20007;-72
2021/11/22 09:46:50;;;;;;;5.40;4.65;;;;;;;;;;6145168;23;20013;-73
2021/11/22 09:49:16;;;;;;;8.95;4.80;;;;;;;;;;6145027;23;20713;-73
2021/11/22 09:51:42;;;;;;;5.93;4.63;;;;;;;;;;6143412;23;20009;-73
2021/11/22 09:54:08;;;;;;;5.97;4.65;;;;;;;;;;6145489;23;20008;-73
2021/11/22 09:56:34;;;;;;;7.68;4.65;;;;;;;;;;6145517;23;20072;-73
2021/11/22 09:59:01;;;;;;;7.38;4.57;;;;;;;;;;6146414;23;20017;-73
2021/11/22 10:01:30;;;;;;;7.45;4.30;;;;;;;;;;6147017;23;20017;-73
2021/11/22 10:04:02;;;;;;;7.82;4.68;;;;;;;;;;6146331;23;20002;-73
2021/11/22 10:06:43;;;;;;;6.15;4.53;;;;;;;;;;6147327;23;20001;-73
2021/11/22 10:09:28;;;;;;;7.40;5.05;;;;;;;;;;6147176;23;20005;-73
2021/11/22 10:11:55;;;;;;;5.22;4.50;;;;;;;;;;6145123;23;20415;-73
2021/11/22 10:14:36;;;;;;;8.70;4.90;;;;;;;;;;6120323;23;20450;-72
2021/11/22 10:17:02;;;;;;;7.57;5.00;;;;;;;;;;6147418;23;20023;-73
2021/11/22 10:19:28;;;;;;;5.82;4.38;;;;;;;;;;6147260;23;20073;-73
2021/11/22 10:21:54;;;;;;;8.30;5.00;;;;;;;;;;6147172;23;20039;-72
2021/11/22 10:24:21;;;;;;;8.52;5.28;;;;;;;;;;6119640;23;20009;-73
2021/11/22 10:26:51;;;;;;;5.93;5.32;;;;;;;;;;6116132;23;20048;-73
2021/11/22 10:29:24;;;;;;;7.05;5.30;;;;;;;;;;6117174;23;20085;-73
2021/11/22 10:31:55;;;;;;;5.68;5.00;;;;;;;;;;6113536;23;20032;-73
2021/11/22 10:34:21;;;;;;;5.53;4.72;;;;;;;;;;6116982;23;20006;-73
2021/11/22 10:37:07;;;;;;;6.22;5.13;;;;;;;;;;6117137;23;20014;-72
2021/11/22 10:39:34;;;;;;;8.43;6.45;;;;;;;;;;6114084;23;20451;-73
2021/11/22 10:42:00;;;;;;;8.07;5.57;;;;;;;;;;6115148;23;20006;-74
2021/11/22 10:44:31;;;;;;;7.05;5.30;;;;;;;;;;6116689;23;20009;-72
2021/11/22 10:47:09;;;;;;;15.23;13.75;;;;;;;;;;6117993;23;20082;-72
2021/11/22 10:49:44;;;;;;;13.75;11.65;;;;;;;;;;6116989;23;19998;-72
2021/11/22 10:52:35;;;;;;;8.93;7.43;;;;;;;;;;6113974;23;20084;-74
2021/11/22 10:55:04;;;;;;;8.48;6.40;;;;;;;;;;6116759;23;20559;-72
2021/11/22 10:57:38;;;;;;;8.77;5.63;;;;;;;;;;6116103;23;20013;-74
2021/11/22 11:00:25;;;;;;;7.65;5.18;;;;;;;;;;6116192;23;20006;-74
2021/11/22 11:02:53;;;;;;;6.82;5.20;;;;;;;;;;6117027;23;20045;-73
2021/11/22 11:05:31;;;;;;;7.47;5.20;;;;;;;;;;6113552;23;20060;-74
2021/11/22 11:08:01;;;;;;;8.20;5.20;;;;;;;;;;6108967;23;20355;-72
2021/11/22 11:10:27;;;;;;;5.40;4.82;;;;;;;;;;6109242;23;20002;-73
2021/11/22 11:12:55;;;;;;;5.50;5.00;;;;;;;;;;6109692;23;20383;-72
2021/11/22 11:15:22;;;;;;;8.07;5.63;;;;;;;;;;6108398;23;19998;-74
2021/11/22 11:17:48;;;;;;;6.85;4.85;;;;;;;;;;6108991;23;20036;-74
2021/11/22 11:20:16;;;;;;;5.65;4.25;;;;;;;;;;6109766;23;20002;-73
2021/11/22 11:22:42;;;;;;;5.38;4.88;;;;;;;;;;6108493;23;20332;-73
2021/11/22 11:25:09;;;;;;;7.43;5.10;;;;;;;;;;6113764;23;20081;-74
2021/11/22 11:27:40;;;;;;;15.20;11.68;;;;;;;;;;6138959;23;20048;-73
2021/11/22 11:30:07;;;;;;;11.48;9.90;;;;;;;;;;6138777;23;20001;-74
2021/11/22 11:32:33;;;;;;;11.65;7.95;;;;;;;;;;6139293;23;20001;-73
2021/11/22 11:35:00;;;;;;;6.68;5.45;;;;;;;;;;6136445;23;20017;-73
2021/11/22 11:37:45;;;;;;;5.40;4.60;;;;;;;;;;6136913;23;20048;-73
2021/11/22 11:40:17;;;;;;;5.20;4.70;;;;;;;;;;6139223;23;20151;-74
2021/11/22 11:42:49;;;;;;;6.18;4.20;;;;;;;;;;6137110;23;20005;-73
2021/11/22 11:45:16;;;;;;;5.53;4.32;;;;;;;;;;6138820;23;20429;-73
2021/11/22 11:48:17;;;;;;;6.97;4.55;;;;;;;;;;6138242;23;20406;-73
2021/11/22 11:50:44;;;;;;;10.52;9.43;;;;;;;;;;5991210;23;20528;-72
2021/11/22 11:53:17;;;;;;;10.50;8.85;;;;;;;;;;6109379;23;20020;-73
2021/11/22 11:55:44;;;;;;;9.50;7.55;;;;;;;;;;6138809;23;20506;-73
2021/11/22 11:58:13;;;;;;;8.23;6.75;;;;;;;;;;6136822;23;20017;-74
2021/11/22 12:00:50;;;;;;;8.48;6.68;;;;;;;;;;6138383;23;20035;-73
2021/11/22 12:03:16;;;;;;;7.45;6.18;;;;;;;;;;6139294;23;20005;-73
2021/11/22 12:05:43;;;;;;;6.63;5.93;;;;;;;;;;6138666;23;20059;-73
2021/11/22 12:08:19;;;;;;;7.00;6.30;;;;;;;;;;6137739;23;20059;-74
2021/11/22 12:10:45;;;;;;;6.97;4.63;;;;;;;;;;6137795;23;20084;-75
2021/11/22 12:13:14;;;;;;;7.00;4.97;;;;;;;;;;6137309;23;19998;-72
2021/11/22 12:15:40;;;;;;;6.65;4.40;;;;;;;;;;6109113;23;20096;-73
2021/11/22 12:18:11;;;;;;;7.80;4.63;;;;;;;;;;6136148;23;20032;-73
2021/11/22 12:20:37;;;;;;;6.30;4.30;;;;;;;;;;6136998;23;20326;-73
2021/11/22 12:23:05;;;;;;;7.70;4.82;;;;;;;;;;6135694;23;20549;-72
2021/11/22 12:25:43;;;;;;;6.72;4.68;;;;;;;;;;6111392;23;20092;-73
2021/11/22 12:28:13;;;;;;;7.35;4.65;;;;;;;;;;6137035;23;20009;-72
2021/11/22 12:30:40;;;;;;;8.10;4.50;;;;;;;;;;6137109;23;20016;-72
2021/11/22 12:33:24;;;;;;;5.25;4.45;;;;;;;;;;6137872;23;20044;-73
2021/11/22 12:36:02;;;;;;;5.97;4.53;;;;;;;;;;6137630;23;20448;-75
2021/11/22 12:38:57;;;;;;;5.32;4.55;;;;;;;;;;6111189;23;20021;-73
2021/11/22 12:41:24;;;;;;;4.72;4.20;;;;;;;;;;6104502;23;20477;-73
2021/11/22 12:43:51;;;;;;;4.40;4.00;;;;;;;;;;6138046;23;20020;-73
2021/11/22 12:46:19;;;;;;;6.00;4.85;;;;;;;;;;6137041;23;20013;-72
2021/11/22 12:48:49;;;;;;;6.10;4.63;;;;;;;;;;6137366;23;20009;-73
2021/11/22 12:51:16;;;;;;;6.90;4.45;;;;;;;;;;6137793;23;20005;-73
2021/11/22 12:54:00;;;;;;;5.90;5.10;;;;;;;;;;6135833;23;20005;-72
2021/11/22 12:56:27;;;;;;;6.57;5.72;;;;;;;;;;6137621;23;20561;-72
2021/11/22 12:59:06;;;;;;;9.75;8.82;;;;;;;;;;6137859;23;20052;-72
2021/11/22 13:01:33;;;;;;;10.68;9.68;;;;;;;;;;6137598;23;20016;-72
2021/11/22 13:03:59;;;;;;;9.45;8.45;;;;;;;;;;6135524;23;20012;-74
2021/11/22 13:06:39;;;;;;;40.67;36.35;;;;;;;;;;6137013;23;20417;-72
2021/11/22 13:09:10;;;;;;;44.22;39.50;;;;;;;;;;6136405;23;20338;-74
2021/11/22 13:11:44;;;;;;;28.17;25.20;;;;;;;;;;6136170;23;20006;-74
2021/11/22 13:14:13;;;;;;;11.85;10.70;;;;;;;;;;6137379;23;20502;-73
2021/11/22 13:16:40;;;;;;;12.45;8.88;;;;;;;;;;6135234;23;20167;-73
2021/11/22 13:19:11;;;;;;;9.10;8.20;;;;;;;;;;6137753;23;20054;-73
2021/11/22 13:21:39;;;;;;;10.93;8.47;;;;;;;;;;6138241;23;20063;-73
2021/11/22 13:24:13;;;;;;;8.00;7.07;;;;;;;;;;6138137;23;20210;-73
2021/11/22 13:26:40;;;;;;;8.60;7.03;;;;;;;;;;6137322;23;20021;-74
2021/11/22 13:29:25;;;;;;;9.48;6.80;;;;;;;;;;6135621;23;20291;-74
2021/11/22 13:31:53;;;;;;;7.43;6.07;;;;;;;;;;6137290;23;20002;-73
2021/11/22 13:34:23;;;;;;;6.60;5.90;;;;;;;;;;6136896;23;20061;-72
2021/11/22 13:36:53;;;;;;;6.95;6.25;;;;;;;;;;6139840;23;20024;-74
2021/11/22 13:39:38;;;;;;;11.10;6.85;;;;;;;;;;6138480;23;20056;-71
2021/11/22 13:42:07;;;;;;;8.50;7.55;;;;;;;;;;6141007;23;20009;-73
2021/11/22 13:44:42;;;;;;;8.35;7.10;;;;;;;;;;6142138;23;20006;-73
2021/11/22 13:47:10;;;;;;;10.38;7.00;;;;;;;;;;6143530;23;20025;-72
2021/11/22 13:49:36;;;;;;;9.23;8.20;;;;;;;;;;6142386;23;20005;-72
2021/11/22 13:52:03;;;;;;;13.23;9.50;;;;;;;;;;6143162;23;20612;-74
2021/11/22 13:54:29;;;;;;;13.82;10.23;;;;;;;;;;6143321;23;20068;-74
2021/11/22 13:56:59;;;;;;;13.30;10.48;;;;;;;;;;6142598;23;20014;-74
2021/11/22 13:59:33;;;;;;;13.75;12.23;;;;;;;;;;6146889;23;20005;-74
2021/11/22 14:02:02;;;;;;;14.98;12.00;;;;;;;;;;6142586;23;20009;-74
2021/11/22 14:04:33;;;;;;;14.88;12.82;;;;;;;;;;6142283;23;20549;-74
2021/11/22 14:07:01;;;;;;;12.00;10.77;;;;;;;;;;6142566;23;20145;-73
2021/11/22 14:09:27;;;;;;;12.63;9.63;;;;;;;;;;6115872;23;20435;-74
2021/11/22 14:11:58;;;;;;;10.02;8.27;;;;;;;;;;6139205;23;20001;-73
2021/11/22 14:14:28;;;;;;;11.73;7.82;;;;;;;;;;6142271;23;20072;-73
2021/11/22 14:16:56;;;;;;;10.27;7.18;;;;;;;;;;6142047;23;20096;-73
2021/11/22 14:19:22;;;;;;;9.55;6.85;;;;;;;;;;6142263;23;20254;-73
2021/11/22 14:21:51;;;;;;;12.88;6.97;;;;;;;;;;6140579;23;20109;-74
2021/11/22 14:24:20;;;;;;;11.18;7.18;;;;;;;;;;6141969;23;20033;-72
2021/11/22 14:26:47;;;;;;;10.60;7.65;;;;;;;;;;6141865;23;20021;-74
2021/11/22 14:29:23;;;;;;;9.23;7.07;;;;;;;;;;6139231;23;20115;-73
2021/11/22 14:31:52;;;;;;;10.10;6.35;;;;;;;;;;6140728;23;20367;-73
2021/11/22 14:34:20;;;;;;;11.05;7.68;;;;;;;;;;6140030;23;20001;-74
2021/11/22 14:36:48;;;;;;;7.80;6.57;;;;;;;;;;6139371;23;20017;-74
2021/11/22 14:39:14;;;;;;;8.27;6.85;;;;;;;;;;6139813;23;20001;-73
2021/11/22 14:41:43;;;;;;;11.77;7.43;;;;;;;;;;6136309;23;20040;-73
2021/11/22 14:44:10;;;;;;;8.57;7.68;;;;;;;;;;6138986;23;20077;-73
2021/11/22 14:46:39;;;;;;;8.48;7.40;;;;;;;;;;6139688;23;20289;-74